createdAt,value
2018-08-24T00:02:13.287Z,99.90
2018-08-24T00:04:42.138Z,99.90
2018-08-24T00:07:10.541Z,99.90
2018-08-24T00:09:38.924Z,99.90
2018-08-24T00:12:07.666Z,99.90
2018-08-24T00:14:36.057Z,99.90
2018-08-24T00:17:09.248Z,99.90
2018-08-24T00:19:37.647Z,99.90
2018-08-24T00:22:06.170Z,99.90
2018-08-24T00:24:34.703Z,99.90
2018-08-24T00:27:03.105Z,99.90
2018-08-24T00:29:31.499Z,99.90
2018-08-24T00:32:00.281Z,99.90
2018-08-24T00:34:28.689Z,99.90
2018-08-24T00:36:57.087Z,99.90
2018-08-24T00:39:25.489Z,99.90
2018-08-24T00:41:54.119Z,99.90
2018-08-24T00:44:22.592Z,99.90
2018-08-24T00:46:50.997Z,99.90
2018-08-24T00:49:19.378Z,99.90
2018-08-24T00:51:47.955Z,99.90
2018-08-24T00:54:16.364Z,99.90
2018-08-24T00:56:44.774Z,99.90
2018-08-24T00:59:13.488Z,99.90
2018-08-24T01:01:42.328Z,99.90
2018-08-24T01:04:10.738Z,99.90
2018-08-24T01:06:39.162Z,99.90
2018-08-24T01:09:09.127Z,99.90
2018-08-24T01:11:43.138Z,99.90
2018-08-24T01:14:11.548Z,99.90
2018-08-24T01:16:45.146Z,99.90
2018-08-24T01:19:13.541Z,99.90
2018-08-24T01:21:41.934Z,99.90
2018-08-24T01:24:11.212Z,99.90
2018-08-24T01:26:39.598Z,99.50
2018-08-24T01:29:07.997Z,99.30
2018-08-24T01:31:36.406Z,99.00
2018-08-24T01:34:04.802Z,98.90
2018-08-24T01:36:33.202Z,98.60
2018-08-24T01:39:01.611Z,98.60
2018-08-24T01:41:30.043Z,98.20
2018-08-24T01:43:58.446Z,98.00
2018-08-24T01:46:27.660Z,97.70
2018-08-24T01:48:56.046Z,97.50
2018-08-24T01:51:24.444Z,97.30
2018-08-24T01:53:52.874Z,97.30
2018-08-24T01:56:21.268Z,97.30
2018-08-24T01:58:50.071Z,97.20
2018-08-24T02:01:18.473Z,97.10
2018-08-24T02:03:46.893Z,97.10
2018-08-24T02:06:15.273Z,97.10
2018-08-24T02:08:43.665Z,96.90
2018-08-24T02:11:17.429Z,97.00
2018-08-24T02:13:51.198Z,96.80
2018-08-24T02:16:19.659Z,97.10
2018-08-24T02:18:53.312Z,96.50
2018-08-24T02:21:27.093Z,96.50
2018-08-24T02:23:55.743Z,96.40
2018-08-24T02:26:24.160Z,96.60
2018-08-24T02:28:52.591Z,96.20
2018-08-24T02:31:21.042Z,96.20
2018-08-24T02:33:49.479Z,96.20
2018-08-24T02:36:17.875Z,96.20
2018-08-24T02:38:46.291Z,96.10
2018-08-24T02:41:14.697Z,96.10
2018-08-24T02:43:43.089Z,96.10
2018-08-24T02:46:11.480Z,96.10
2018-08-24T02:48:39.889Z,96.20
2018-08-24T02:51:08.291Z,96.00
2018-08-24T02:53:36.692Z,96.10
2018-08-24T02:56:05.103Z,95.90
2018-08-24T02:58:33.488Z,95.90
2018-08-24T03:01:01.878Z,95.90
2018-08-24T03:03:30.708Z,95.90
2018-08-24T03:05:59.106Z,96.00
2018-08-24T03:08:27.874Z,96.00
2018-08-24T03:10:56.690Z,96.10
2018-08-24T03:13:25.306Z,96.20
2018-08-24T03:15:53.714Z,96.30
2018-08-24T03:18:22.154Z,96.60
2018-08-24T03:20:50.558Z,96.30
2018-08-24T03:23:18.966Z,96.20
2018-08-24T03:25:47.356Z,96.20
2018-08-24T03:28:22.162Z,96.30
2018-08-24T03:30:50.566Z,96.30
2018-08-24T03:33:19.171Z,96.40
2018-08-24T03:35:47.578Z,96.40
2018-08-24T03:38:16.017Z,96.40
2018-08-24T03:40:45.273Z,96.30
2018-08-24T03:43:14.120Z,96.40
2018-08-24T03:45:42.562Z,96.40
2018-08-24T03:48:10.943Z,96.50
2018-08-24T03:50:39.349Z,96.40
2018-08-24T03:53:07.779Z,96.50
2018-08-24T03:55:37.412Z,96.50
2018-08-24T03:58:07.695Z,96.50
2018-08-24T04:00:36.104Z,96.60
2018-08-24T04:03:05.189Z,96.70
2018-08-24T04:05:34.030Z,96.80
2018-08-24T04:08:02.438Z,96.80
2018-08-24T04:10:30.825Z,96.80
2018-08-24T04:12:59.215Z,96.80
2018-08-24T04:15:27.600Z,96.80
2018-08-24T04:17:56.005Z,96.70
2018-08-24T04:20:24.403Z,96.60
2018-08-24T04:22:52.834Z,96.40
2018-08-24T04:25:21.243Z,95.90
2018-08-24T04:27:49.638Z,95.20
2018-08-24T04:30:18.035Z,94.70
2018-08-24T04:32:46.446Z,94.60
2018-08-24T04:35:14.845Z,94.70
2018-08-24T04:37:43.239Z,94.70
2018-08-24T04:40:11.668Z,94.70
2018-08-24T04:42:40.071Z,94.60
2018-08-24T04:45:08.463Z,94.50
2018-08-24T04:47:36.871Z,94.40
2018-08-24T04:50:05.429Z,94.00
2018-08-24T04:52:33.837Z,93.40
2018-08-24T04:55:02.235Z,93.00
2018-08-24T04:57:30.641Z,92.80
2018-08-24T04:59:59.033Z,92.70
2018-08-24T05:02:27.437Z,92.60
2018-08-24T05:04:56.701Z,92.40
2018-08-24T05:07:25.097Z,92.40
2018-08-24T05:09:53.522Z,92.50
2018-08-24T05:12:21.922Z,92.50
2018-08-24T05:14:50.338Z,92.50
2018-08-24T05:17:18.730Z,92.50
2018-08-24T05:19:47.130Z,92.50
2018-08-24T05:22:15.531Z,92.60
2018-08-24T05:24:43.988Z,92.60
2018-08-24T05:27:12.350Z,92.60
2018-08-24T05:29:40.722Z,92.60
2018-08-24T05:32:09.122Z,92.70
2018-08-24T05:34:37.552Z,92.70
2018-08-24T05:37:08.523Z,92.90
2018-08-24T05:39:36.920Z,93.00
2018-08-24T05:42:05.322Z,93.10
2018-08-24T05:44:33.729Z,93.20
2018-08-24T05:47:02.112Z,93.40
2018-08-24T05:49:30.499Z,93.50
2018-08-24T05:51:58.914Z,93.60
2018-08-24T05:54:27.314Z,93.50
2018-08-24T05:56:55.723Z,93.40
2018-08-24T05:59:24.131Z,93.10
2018-08-24T06:01:52.517Z,92.80
2018-08-24T06:04:20.910Z,92.30
2018-08-24T06:06:49.407Z,91.80
2018-08-24T06:09:17.861Z,91.10
2018-08-24T06:11:46.261Z,91.00
2018-08-24T06:14:14.909Z,90.70
2018-08-24T06:16:51.525Z,90.40
2018-08-24T06:19:21.403Z,90.40
2018-08-24T06:21:50.606Z,90.30
2018-08-24T06:24:19.391Z,90.20
2018-08-24T06:26:47.787Z,90.10
2018-08-24T06:29:16.308Z,90.50
2018-08-24T06:31:44.706Z,90.40
2018-08-24T06:34:13.088Z,90.70
2018-08-24T06:36:41.500Z,90.70
2018-08-24T06:39:11.945Z,90.90
2018-08-24T06:41:40.429Z,90.10
2018-08-24T06:44:08.796Z,89.10
2018-08-24T06:46:37.206Z,87.70
2018-08-24T06:49:05.791Z,87.70
2018-08-24T06:51:34.192Z,88.10
2018-08-24T06:54:02.685Z,87.70
2018-08-24T06:56:31.064Z,86.90
2018-08-24T06:58:59.620Z,85.70
2018-08-24T07:01:28.021Z,85.50
2018-08-24T07:03:56.422Z,84.70
2018-08-24T07:06:24.823Z,84.60
2018-08-24T07:08:53.209Z,84.20
2018-08-24T07:11:21.589Z,84.90
2018-08-24T07:13:59.021Z,84.10
2018-08-24T07:16:28.199Z,82.10
2018-08-24T07:18:56.595Z,82.00
2018-08-24T07:21:25.007Z,81.20
2018-08-24T07:23:53.409Z,82.60
2018-08-24T07:26:21.807Z,80.80
2018-08-24T07:28:50.195Z,80.00
2018-08-24T07:31:18.588Z,80.10
2018-08-24T07:33:47.027Z,79.40
2018-08-24T07:36:15.529Z,78.60
2018-08-24T07:38:44.012Z,79.80
2018-08-24T07:41:12.409Z,77.60
2018-08-24T07:43:40.860Z,78.90
2018-08-24T07:46:09.262Z,76.40
2018-08-24T07:48:37.756Z,76.50
2018-08-24T07:51:06.167Z,77.70
2018-08-24T07:53:34.558Z,77.50
2018-08-24T07:56:02.958Z,76.20
2018-08-24T07:58:31.405Z,75.80
2018-08-24T08:00:59.838Z,73.50
2018-08-24T08:03:28.322Z,72.80
2018-08-24T08:05:56.790Z,72.70
2018-08-24T08:08:25.374Z,74.60
2018-08-24T08:10:53.818Z,74.70
2018-08-24T08:13:22.233Z,73.80
2018-08-24T08:15:50.638Z,73.90
2018-08-24T08:18:19.105Z,75.10
2018-08-24T08:20:47.454Z,75.40
2018-08-24T08:23:15.866Z,77.30
2018-08-24T08:25:44.295Z,77.30
2018-08-24T08:28:12.681Z,78.20
2018-08-24T08:30:41.072Z,75.90
2018-08-24T08:33:09.502Z,76.00
2018-08-24T08:35:37.908Z,75.70
2018-08-24T08:38:06.348Z,73.90
2018-08-24T08:40:34.818Z,70.80
2018-08-24T08:43:03.246Z,70.40
2018-08-24T08:45:32.057Z,72.50
2018-08-24T08:48:00.457Z,69.10
2018-08-24T08:50:28.865Z,68.60
2018-08-24T08:52:57.272Z,67.50
2018-08-24T08:55:25.703Z,68.90
2018-08-24T08:57:54.106Z,67.70
2018-08-24T09:00:22.515Z,67.60
2018-08-24T09:02:51.063Z,68.00
2018-08-24T09:05:19.857Z,69.40
2018-08-24T09:07:48.611Z,65.10
2018-08-24T09:10:17.029Z,64.80
2018-08-24T09:12:45.432Z,65.10
2018-08-24T09:15:13.881Z,65.50
2018-08-24T09:19:48.781Z,61.20
2018-08-24T09:22:22.531Z,62.80
2018-08-24T09:24:56.183Z,64.30
2018-08-24T09:27:29.867Z,63.70
2018-08-24T09:30:01.131Z,63.30
2018-08-24T09:32:29.642Z,61.40
2018-08-24T09:34:57.955Z,61.90
2018-08-24T09:37:31.765Z,60.40
2018-08-24T09:40:00.165Z,61.10
2018-08-24T09:42:28.633Z,60.10
2018-08-24T09:44:57.019Z,61.20
2018-08-24T09:48:34.696Z,61.40
2018-08-24T09:51:08.345Z,63.60
2018-08-24T09:53:42.117Z,62.80
2018-08-24T09:56:10.982Z,63.90
2018-08-24T09:58:39.393Z,65.20
2018-08-24T10:01:13.094Z,63.80
2018-08-24T10:03:46.985Z,62.50
2018-08-24T10:06:21.094Z,61.00
2018-08-24T10:08:51.080Z,59.90
2018-08-24T10:11:19.480Z,62.20
2018-08-24T10:13:47.915Z,57.90
2018-08-24T10:16:17.168Z,58.10
2018-08-24T10:18:45.594Z,59.20
2018-08-24T10:21:14.000Z,59.10
2018-08-24T10:23:42.500Z,59.70
2018-08-24T10:26:10.892Z,58.00
2018-08-24T10:28:39.550Z,58.60
2018-08-24T10:31:07.984Z,59.50
2018-08-24T10:33:36.435Z,58.50
2018-08-24T10:36:04.898Z,57.40
2018-08-24T10:38:33.299Z,57.20
2018-08-24T10:41:01.846Z,55.80
2018-08-24T10:43:30.099Z,56.80
2018-08-24T10:45:58.573Z,56.80
2018-08-24T10:48:26.977Z,57.00
2018-08-24T10:50:55.376Z,57.70
2018-08-24T10:53:23.835Z,57.40
2018-08-24T10:55:52.381Z,57.40
2018-08-24T10:58:20.762Z,57.60
2018-08-24T11:00:49.175Z,58.00
2018-08-24T11:03:17.579Z,59.00
2018-08-24T11:05:46.095Z,59.50
2018-08-24T11:08:14.515Z,60.00
2018-08-24T11:10:42.884Z,57.10
2018-08-24T11:13:11.309Z,55.60
2018-08-24T11:15:39.773Z,55.90
2018-08-24T11:18:11.118Z,55.90
2018-08-24T11:20:41.107Z,55.50
2018-08-24T11:23:10.172Z,56.50
2018-08-24T11:25:39.211Z,57.70
2018-08-24T11:28:07.627Z,57.00
2018-08-24T11:30:36.046Z,55.60
2018-08-24T11:33:04.434Z,54.70
2018-08-24T11:35:32.822Z,55.30
2018-08-24T11:38:01.354Z,53.80
2018-08-24T11:40:29.752Z,53.80
2018-08-24T11:42:58.168Z,53.70
2018-08-24T11:45:26.574Z,52.70
2018-08-24T11:47:55.031Z,52.50
2018-08-24T11:50:23.428Z,53.00
2018-08-24T11:52:51.824Z,53.50
2018-08-24T11:55:20.226Z,54.00
2018-08-24T11:57:57.833Z,54.20
2018-08-24T12:00:34.370Z,53.70
2018-08-24T12:03:07.261Z,51.40
2018-08-24T12:05:39.195Z,50.90
2018-08-24T12:08:12.502Z,50.70
2018-08-24T12:10:46.078Z,49.80
2018-08-24T12:13:16.775Z,50.80
2018-08-24T12:15:47.159Z,51.10
2018-08-24T12:18:17.843Z,52.60
2018-08-24T12:20:48.379Z,52.80
2018-08-24T12:23:19.435Z,51.60
2018-08-24T12:25:49.197Z,51.60
2018-08-24T12:28:19.375Z,51.30
2018-08-24T12:30:50.325Z,51.30
2018-08-24T12:33:18.959Z,50.90
2018-08-24T12:35:48.615Z,52.50
2018-08-24T12:38:18.039Z,51.90
2018-08-24T12:40:47.939Z,52.40
2018-08-24T12:43:16.485Z,50.90
2018-08-24T12:46:08.030Z,51.60
2018-08-24T12:48:41.161Z,51.50
2018-08-24T12:51:10.567Z,51.50
2018-08-24T12:53:40.103Z,52.10
2018-08-24T12:56:15.077Z,51.10
2018-08-24T12:59:13.626Z,52.00
2018-08-24T13:01:47.501Z,51.40
2018-08-24T13:04:18.654Z,51.10
2018-08-24T13:06:48.352Z,51.40
2018-08-24T13:09:17.738Z,51.10
2018-08-24T13:11:47.909Z,51.00
2018-08-24T13:14:17.671Z,51.00
2018-08-24T13:16:47.430Z,50.20
2018-08-24T13:19:17.674Z,50.60
2018-08-24T13:21:47.566Z,51.10
2018-08-24T13:24:18.284Z,51.20
2018-08-24T13:26:48.284Z,51.30
2018-08-24T13:29:19.800Z,51.70
2018-08-24T13:31:50.256Z,50.30
2018-08-24T13:34:20.222Z,49.50
2018-08-24T13:36:48.778Z,50.00
2018-08-24T13:39:17.156Z,49.90
2018-08-24T13:41:45.663Z,50.00
2018-08-24T13:44:14.050Z,49.90
2018-08-24T13:46:42.456Z,50.20
2018-08-24T13:49:10.905Z,49.50
2018-08-24T13:51:39.301Z,49.50
2018-08-24T13:54:08.117Z,49.90
2018-08-24T13:56:36.499Z,49.40
2018-08-24T13:59:04.901Z,49.10
2018-08-24T14:01:33.311Z,49.10
2018-08-24T14:04:01.814Z,49.70
2018-08-24T14:06:30.201Z,50.40
2018-08-24T14:08:58.688Z,50.60
2018-08-24T14:11:30.822Z,50.30
2018-08-24T14:14:01.193Z,49.40
2018-08-24T14:16:30.819Z,48.80
2018-08-24T14:19:01.820Z,49.30
2018-08-24T14:21:30.564Z,48.20
2018-08-24T14:23:59.825Z,48.00
2018-08-24T14:26:28.863Z,49.30
2018-08-24T14:28:58.006Z,49.00
2018-08-24T14:31:27.367Z,49.30
2018-08-24T14:33:56.455Z,50.40
2018-08-24T14:36:25.563Z,50.80
2018-08-24T14:38:54.563Z,50.90
2018-08-24T14:41:24.661Z,50.90
2018-08-24T14:43:55.352Z,50.90
2018-08-24T14:46:25.663Z,50.00
2018-08-24T14:48:55.241Z,49.20
2018-08-24T14:51:23.682Z,49.80
2018-08-24T14:53:53.573Z,50.60
2018-08-24T14:56:22.151Z,48.90
2018-08-24T14:58:55.531Z,47.60
2018-08-24T15:01:27.725Z,47.60
2018-08-24T15:04:01.004Z,48.20
2018-08-24T15:06:30.221Z,46.60
2018-08-24T15:08:59.265Z,46.10
2018-08-24T15:11:27.671Z,46.00
2018-08-24T15:13:56.070Z,45.90
2018-08-24T15:16:24.521Z,45.60
2018-08-24T15:18:52.917Z,46.40
2018-08-24T15:21:21.407Z,47.10
2018-08-24T15:23:50.338Z,47.50
2018-08-24T15:26:18.742Z,47.40
2018-08-24T15:28:47.442Z,46.80
2018-08-24T15:31:15.848Z,47.00
2018-08-24T15:33:44.262Z,47.50
2018-08-24T15:36:12.905Z,47.50
2018-08-24T15:38:41.315Z,46.70
2018-08-24T15:41:09.718Z,46.80
2018-08-24T15:43:38.466Z,46.60
2018-08-24T15:46:07.394Z,46.80
2018-08-24T15:48:35.980Z,47.80
2018-08-24T15:51:05.588Z,47.90
2018-08-24T15:53:33.992Z,48.50
2018-08-24T15:56:02.382Z,48.80
2018-08-24T15:58:30.784Z,48.00
2018-08-24T16:00:59.193Z,47.80
2018-08-24T16:03:27.584Z,48.20
2018-08-24T16:05:56.101Z,48.60
2018-08-24T16:08:24.632Z,49.60
2018-08-24T16:10:53.046Z,49.70
2018-08-24T16:13:21.442Z,49.00
2018-08-24T16:15:49.844Z,50.00
2018-08-24T16:18:24.886Z,49.60
2018-08-24T16:20:54.710Z,49.60
2018-08-24T16:23:23.108Z,49.30
2018-08-24T16:25:51.510Z,50.20
2018-08-24T16:28:20.660Z,50.40
2018-08-24T16:30:49.114Z,50.10
2018-08-24T16:33:18.536Z,50.00
2018-08-24T16:35:47.023Z,50.40
2018-08-24T16:38:16.521Z,50.90
2018-08-24T16:40:44.948Z,50.60
2018-08-24T16:43:14.627Z,51.00
2018-08-24T16:45:43.623Z,51.30
2018-08-24T16:48:12.025Z,51.50
2018-08-24T16:50:40.421Z,51.20
2018-08-24T16:53:09.215Z,51.00
2018-08-24T16:55:37.619Z,51.20
2018-08-24T16:58:06.158Z,51.10
2018-08-24T17:00:34.595Z,51.00
2018-08-24T17:03:03.149Z,50.50
2018-08-24T17:05:31.648Z,50.70
2018-08-24T17:08:00.626Z,51.20
2018-08-24T17:10:29.035Z,51.60
2018-08-24T17:12:58.680Z,51.80
2018-08-24T17:15:27.044Z,51.90
2018-08-24T17:17:55.438Z,51.50
2018-08-24T17:20:23.847Z,51.50
2018-08-24T17:22:52.658Z,51.90
2018-08-24T17:25:21.088Z,52.50
2018-08-24T17:27:49.493Z,51.60
2018-08-24T17:30:17.996Z,51.60
2018-08-24T17:32:46.410Z,51.30
2018-08-24T17:35:14.926Z,51.20
2018-08-24T17:37:43.558Z,51.50
2018-08-24T17:40:11.967Z,52.10
2018-08-24T17:42:40.472Z,52.80
2018-08-24T17:45:08.870Z,53.40
2018-08-24T17:47:37.744Z,54.30
2018-08-24T17:50:06.490Z,54.90
2018-08-24T17:52:34.878Z,55.40
2018-08-24T17:55:03.284Z,56.20
2018-08-24T17:57:31.714Z,56.90
2018-08-24T18:00:00.127Z,57.50
2018-08-24T18:02:28.531Z,58.00
2018-08-24T18:04:56.924Z,58.60
2018-08-24T18:07:25.332Z,58.90
2018-08-24T18:09:53.743Z,59.30
2018-08-24T18:12:22.162Z,59.40
2018-08-24T18:14:50.584Z,59.40
2018-08-24T18:17:19.350Z,59.70
2018-08-24T18:19:48.146Z,59.90
2018-08-24T18:22:16.642Z,59.90
2018-08-24T18:24:45.057Z,60.00
2018-08-24T18:27:13.457Z,60.80
2018-08-24T18:30:04.925Z,61.30
2018-08-24T18:32:46.623Z,62.10
2018-08-24T18:35:16.229Z,62.80
2018-08-24T18:37:45.908Z,63.70
2018-08-24T18:40:15.613Z,64.30
2018-08-24T18:42:44.073Z,65.10
2018-08-24T18:45:12.937Z,65.50
2018-08-24T18:47:41.576Z,65.80
2018-08-24T18:50:13.210Z,65.80
2018-08-24T18:52:41.735Z,65.60
2018-08-24T18:55:23.447Z,66.00
2018-08-24T18:57:58.487Z,65.90
2018-08-24T19:02:06.694Z,65.50
2018-08-24T19:04:41.152Z,65.10
2018-08-24T19:07:14.928Z,65.90
2018-08-24T19:09:50.708Z,66.00
2018-08-24T19:12:28.155Z,66.60
2018-08-24T19:14:58.916Z,66.90
2018-08-24T19:17:34.680Z,67.70
2018-08-24T19:20:09.829Z,68.40
2018-08-24T19:22:53.940Z,69.10
2018-08-24T19:25:30.208Z,70.10
2018-08-24T19:28:08.206Z,70.40
2018-08-24T19:30:40.250Z,71.10
2018-08-24T19:33:11.012Z,71.10
2018-08-24T19:35:42.001Z,71.90
2018-08-24T19:38:12.270Z,72.40
2018-08-24T19:40:47.873Z,72.70
2018-08-24T19:43:17.604Z,73.30
2018-08-24T19:45:48.423Z,73.60
2018-08-24T19:48:23.786Z,74.20
2018-08-24T19:50:53.398Z,74.40
2018-08-24T19:53:22.665Z,74.80
2018-08-24T19:55:51.570Z,75.10
2018-08-24T19:58:25.770Z,75.30
2018-08-24T20:00:54.207Z,76.40
2018-08-24T20:03:22.793Z,76.00
2018-08-24T20:05:56.658Z,76.30
2018-08-24T20:08:30.438Z,76.60
2018-08-24T20:10:58.840Z,77.00
2018-08-24T20:13:27.262Z,77.20
2018-08-24T20:16:00.943Z,77.50
2018-08-24T20:18:29.443Z,77.70
2018-08-24T20:20:57.853Z,77.50
2018-08-24T20:23:26.254Z,77.60
2018-08-24T20:25:54.684Z,78.60
2018-08-24T20:28:23.145Z,79.40
2018-08-24T20:30:51.527Z,80.80
2018-08-24T20:33:19.912Z,81.30
2018-08-24T20:35:48.490Z,82.50
2018-08-24T20:38:17.599Z,84.10
2018-08-24T20:40:45.999Z,85.30
2018-08-24T20:43:14.453Z,85.80
2018-08-24T20:45:42.877Z,86.10
2018-08-24T20:48:11.280Z,87.00
2018-08-24T20:50:39.832Z,88.40
2018-08-24T20:53:08.761Z,89.50
2018-08-24T20:55:37.469Z,90.00
2018-08-24T20:58:05.894Z,90.50
2018-08-24T21:00:37.862Z,90.70
2018-08-24T21:03:06.308Z,91.10
2018-08-24T21:05:35.043Z,91.00
2018-08-24T21:08:04.291Z,90.70
2018-08-24T21:10:33.132Z,91.10
2018-08-24T21:13:01.554Z,91.00
2018-08-24T21:15:30.143Z,91.60
2018-08-24T21:17:58.587Z,91.80
2018-08-24T21:20:27.010Z,92.80
2018-08-24T21:22:55.426Z,93.30
2018-08-24T21:25:23.848Z,93.80
2018-08-24T21:27:52.779Z,94.20
2018-08-24T21:30:21.324Z,94.70
2018-08-24T21:32:49.678Z,95.40
2018-08-24T21:35:18.084Z,96.00
2018-08-24T21:37:46.486Z,96.40
2018-08-24T21:40:14.873Z,96.80
2018-08-24T21:42:43.269Z,96.80
2018-08-24T21:45:11.765Z,96.60
2018-08-24T21:47:40.163Z,96.50
2018-08-24T21:50:08.616Z,96.50
2018-08-24T21:52:37.061Z,97.10
2018-08-24T21:55:05.477Z,97.60
2018-08-24T21:57:33.909Z,98.00
2018-08-24T22:00:02.319Z,98.30
2018-08-24T22:02:30.771Z,98.60
2018-08-24T22:04:59.198Z,99.10
2018-08-24T22:07:27.625Z,99.00
2018-08-24T22:09:56.137Z,98.80
2018-08-24T22:12:24.571Z,98.10
2018-08-24T22:14:53.072Z,97.80
2018-08-24T22:17:21.489Z,98.00
2018-08-24T22:19:49.945Z,98.00
2018-08-24T22:22:18.375Z,98.10
2018-08-24T22:24:46.777Z,98.50
2018-08-24T22:27:15.185Z,98.70
2018-08-24T22:29:43.648Z,98.90
2018-08-24T22:32:12.015Z,99.00
2018-08-24T22:34:40.429Z,99.40
2018-08-24T22:37:09.465Z,99.60
2018-08-24T22:39:37.879Z,99.90
2018-08-24T22:42:06.285Z,99.90
2018-08-24T22:44:34.678Z,99.90
2018-08-24T22:47:03.173Z,99.90
2018-08-24T22:49:31.689Z,99.90
2018-08-24T22:52:00.102Z,99.90
2018-08-24T22:54:28.563Z,99.90
2018-08-24T22:56:56.999Z,99.90
2018-08-24T22:59:25.449Z,99.90
2018-08-24T23:01:53.843Z,99.90
2018-08-24T23:04:22.237Z,99.90
2018-08-24T23:06:50.621Z,99.90
2018-08-24T23:09:19.505Z,99.90
2018-08-24T23:11:47.900Z,99.90
2018-08-24T23:14:16.308Z,99.90
2018-08-24T23:16:44.823Z,99.90
2018-08-24T23:19:13.234Z,99.90
2018-08-24T23:21:41.639Z,99.90
2018-08-24T23:24:10.026Z,99.90
2018-08-24T23:26:38.430Z,99.90
2018-08-24T23:29:06.849Z,99.90
2018-08-24T23:31:35.244Z,99.90
2018-08-24T23:34:03.710Z,99.90
2018-08-24T23:36:32.064Z,99.90
2018-08-24T23:40:29.901Z,99.90
2018-08-24T23:42:58.298Z,99.90
2018-08-24T23:45:26.698Z,99.90
2018-08-24T23:47:55.092Z,99.90
2018-08-24T23:50:23.547Z,99.90
2018-08-24T23:52:51.953Z,99.90
2018-08-24T23:55:20.365Z,99.90
2018-08-24T23:57:48.795Z,99.90
